sensor_id;sensor_type;location;lat;lon;timestamp;temperature;humidity
69031;DHT22;56083;48.774;8.942;2022-08-25T00:01:38;17.40;99.90
69031;DHT22;56083;48.774;8.942;2022-08-25T00:04:07;17.40;99.90
69031;DHT22;56083;48.774;8.942;2022-08-25T00:06:34;17.30;99.90
69031;DHT22;56083;48.774;8.942;2022-08-25T00:09:00;17.30;99.90
69031;DHT22;56083;48.774;8.942;2022-08-25T00:11:31;17.30;99.90
69031;DHT22;56083;48.774;8.942;2022-08-25T00:14:00;17.20;99.90
69031;DHT22;56083;48.774;8.942;2022-08-25T00:16:28;17.20;99.90
69031;DHT22;56083;48.774;8.942;2022-08-25T00:18:57;17.10;99.90
69031;DHT22;56083;48.774;8.942;2022-08-25T00:21:24;17.10;99.90
69031;DHT22;56083;48.774;8.942;2022-08-25T00:23:50;17.00;99.90
69031;DHT22;56083;48.774;8.942;2022-08-25T00:26:17;17.00;99.90
69031;DHT22;56083;48.774;8.942;2022-08-25T00:28:43;17.00;99.90
69031;DHT22;56083;48.774;8.942;2022-08-25T00:31:19;17.00;99.90
69031;DHT22;56083;48.774;8.942;2022-08-25T00:33:46;17.00;99.90
69031;DHT22;56083;48.774;8.942;2022-08-25T00:36:13;17.00;99.90
69031;DHT22;56083;48.774;8.942;2022-08-25T00:38:43;17.00;99.90
69031;DHT22;56083;48.774;8.942;2022-08-25T00:41:12;17.00;99.90
69031;DHT22;56083;48.774;8.942;2022-08-25T00:46:12;16.90;99.90
69031;DHT22;56083;48.774;8.942;2022-08-25T00:48:40;16.90;99.90
69031;DHT22;56083;48.774;8.942;2022-08-25T00:51:09;16.90;99.90
69031;DHT22;56083;48.774;8.942;2022-08-25T00:53:36;16.80;99.90
69031;DHT22;56083;48.774;8.942;2022-08-25T00:56:02;16.80;99.90
69031;DHT22;56083;48.774;8.942;2022-08-25T00:58:28;16.80;99.90
69031;DHT22;56083;48.774;8.942;2022-08-25T01:00:57;16.70;99.90
69031;DHT22;56083;48.774;8.942;2022-08-25T01:03:26;16.70;99.90
69031;DHT22;56083;48.774;8.942;2022-08-25T01:05:53;16.70;99.90
69031;DHT22;56083;48.774;8.942;2022-08-25T01:08:23;16.60;99.90
69031;DHT22;56083;48.774;8.942;2022-08-25T01:10:52;16.60;99.90
69031;DHT22;56083;48.774;8.942;2022-08-25T01:13:26;16.60;99.90
69031;DHT22;56083;48.774;8.942;2022-08-25T01:15:54;16.50;99.90
69031;DHT22;56083;48.774;8.942;2022-08-25T01:18:21;16.50;99.90
69031;DHT22;56083;48.774;8.942;2022-08-25T01:20:55;16.50;99.90
69031;DHT22;56083;48.774;8.942;2022-08-25T01:23:22;16.40;99.90
69031;DHT22;56083;48.774;8.942;2022-08-25T01:26:09;16.30;99.90
69031;DHT22;56083;48.774;8.942;2022-08-25T01:28:36;16.30;99.90
69031;DHT22;56083;48.774;8.942;2022-08-25T01:31:03;16.30;99.90
69031;DHT22;56083;48.774;8.942;2022-08-25T01:33:29;16.30;99.90
69031;DHT22;56083;48.774;8.942;2022-08-25T01:35:55;16.20;99.90
69031;DHT22;56083;48.774;8.942;2022-08-25T01:38:21;16.20;99.90
69031;DHT22;56083;48.774;8.942;2022-08-25T01:40:47;16.20;99.90
69031;DHT22;56083;48.774;8.942;2022-08-25T01:43:25;16.10;99.90
69031;DHT22;56083;48.774;8.942;2022-08-25T01:45:54;16.10;99.90
69031;DHT22;56083;48.774;8.942;2022-08-25T01:48:22;16.10;99.90
69031;DHT22;56083;48.774;8.942;2022-08-25T01:50:47;16.10;99.90
69031;DHT22;56083;48.774;8.942;2022-08-25T01:53:28;16.10;99.90
69031;DHT22;56083;48.774;8.942;2022-08-25T01:55:54;16.00;99.90
69031;DHT22;56083;48.774;8.942;2022-08-25T01:58:34;15.90;99.90
69031;DHT22;56083;48.774;8.942;2022-08-25T02:01:03;15.90;99.90
69031;DHT22;56083;48.774;8.942;2022-08-25T02:03:30;15.90;99.90
69031;DHT22;56083;48.774;8.942;2022-08-25T02:05:58;15.80;99.90
69031;DHT22;56083;48.774;8.942;2022-08-25T02:08:24;15.80;99.90
69031;DHT22;56083;48.774;8.942;2022-08-25T02:10:51;15.80;99.90
69031;DHT22;56083;48.774;8.942;2022-08-25T02:13:17;15.80;99.90
69031;DHT22;56083;48.774;8.942;2022-08-25T02:15:49;15.80;99.90
69031;DHT22;56083;48.774;8.942;2022-08-25T02:18:16;15.80;99.90
69031;DHT22;56083;48.774;8.942;2022-08-25T02:20:43;15.80;99.90
69031;DHT22;56083;48.774;8.942;2022-08-25T02:23:09;15.90;99.90
69031;DHT22;56083;48.774;8.942;2022-08-25T02:25:36;15.80;99.90
69031;DHT22;56083;48.774;8.942;2022-08-25T02:28:03;15.80;99.90
69031;DHT22;56083;48.774;8.942;2022-08-25T02:30:29;15.80;99.90
69031;DHT22;56083;48.774;8.942;2022-08-25T02:32:55;15.80;99.90
69031;DHT22;56083;48.774;8.942;2022-08-25T02:35:20;15.70;99.90
69031;DHT22;56083;48.774;8.942;2022-08-25T02:37:46;15.60;99.90
69031;DHT22;56083;48.774;8.942;2022-08-25T02:40:12;15.60;99.90
69031;DHT22;56083;48.774;8.942;2022-08-25T02:42:38;15.50;99.90
69031;DHT22;56083;48.774;8.942;2022-08-25T02:45:04;15.40;99.90
69031;DHT22;56083;48.774;8.942;2022-08-25T02:47:32;15.40;99.90
69031;DHT22;56083;48.774;8.942;2022-08-25T02:49:57;15.30;99.90
69031;DHT22;56083;48.774;8.942;2022-08-25T02:52:24;15.30;99.90
69031;DHT22;56083;48.774;8.942;2022-08-25T02:54:50;15.30;99.90
69031;DHT22;56083;48.774;8.942;2022-08-25T02:57:15;15.30;99.90
69031;DHT22;56083;48.774;8.942;2022-08-25T02:59:42;15.20;99.90
69031;DHT22;56083;48.774;8.942;2022-08-25T03:02:11;15.20;99.90
69031;DHT22;56083;48.774;8.942;2022-08-25T03:04:37;15.20;99.90
69031;DHT22;56083;48.774;8.942;2022-08-25T03:07:03;15.10;99.90
69031;DHT22;56083;48.774;8.942;2022-08-25T03:09:29;15.10;99.90
69031;DHT22;56083;48.774;8.942;2022-08-25T03:11:55;15.00;99.90
69031;DHT22;56083;48.774;8.942;2022-08-25T03:14:20;14.90;99.90
69031;DHT22;56083;48.774;8.942;2022-08-25T03:16:46;14.90;99.90
69031;DHT22;56083;48.774;8.942;2022-08-25T03:19:12;14.90;99.90
69031;DHT22;56083;48.774;8.942;2022-08-25T03:21:38;14.90;99.90
69031;DHT22;56083;48.774;8.942;2022-08-25T03:24:05;14.90;99.90
69031;DHT22;56083;48.774;8.942;2022-08-25T03:26:31;14.90;99.90
69031;DHT22;56083;48.774;8.942;2022-08-25T03:29:15;14.80;99.90
69031;DHT22;56083;48.774;8.942;2022-08-25T03:31:43;14.80;99.90
69031;DHT22;56083;48.774;8.942;2022-08-25T03:34:11;14.80;99.90
69031;DHT22;56083;48.774;8.942;2022-08-25T03:36:37;14.80;99.90
69031;DHT22;56083;48.774;8.942;2022-08-25T03:39:03;14.70;99.90
69031;DHT22;56083;48.774;8.942;2022-08-25T03:41:31;14.60;99.90
69031;DHT22;56083;48.774;8.942;2022-08-25T03:43:57;14.60;99.90
69031;DHT22;56083;48.774;8.942;2022-08-25T03:46:33;14.60;99.90
69031;DHT22;56083;48.774;8.942;2022-08-25T03:49:03;14.60;99.90
69031;DHT22;56083;48.774;8.942;2022-08-25T03:51:32;14.50;99.90
69031;DHT22;56083;48.774;8.942;2022-08-25T03:53:59;14.40;99.90
69031;DHT22;56083;48.774;8.942;2022-08-25T03:56:25;14.40;99.90
69031;DHT22;56083;48.774;8.942;2022-08-25T03:58:52;14.30;99.90
69031;DHT22;56083;48.774;8.942;2022-08-25T04:01:18;14.30;99.90
69031;DHT22;56083;48.774;8.942;2022-08-25T04:03:45;14.40;99.90
69031;DHT22;56083;48.774;8.942;2022-08-25T04:06:10;14.40;99.90
69031;DHT22;56083;48.774;8.942;2022-08-25T04:08:37;14.40;99.90
69031;DHT22;56083;48.774;8.942;2022-08-25T04:11:11;14.30;99.90
69031;DHT22;56083;48.774;8.942;2022-08-25T04:13:37;14.30;99.90
69031;DHT22;56083;48.774;8.942;2022-08-25T04:16:13;14.30;99.90
69031;DHT22;56083;48.774;8.942;2022-08-25T04:18:40;14.30;99.90
69031;DHT22;56083;48.774;8.942;2022-08-25T04:21:08;14.30;99.90
69031;DHT22;56083;48.774;8.942;2022-08-25T04:23:38;14.20;99.90
69031;DHT22;56083;48.774;8.942;2022-08-25T04:26:14;14.30;99.90
69031;DHT22;56083;48.774;8.942;2022-08-25T04:28:40;14.20;99.90
69031;DHT22;56083;48.774;8.942;2022-08-25T04:31:07;14.20;99.90
69031;DHT22;56083;48.774;8.942;2022-08-25T04:33:33;14.20;99.90
69031;DHT22;56083;48.774;8.942;2022-08-25T04:35:59;14.10;99.90
69031;DHT22;56083;48.774;8.942;2022-08-25T04:38:24;14.10;99.90
69031;DHT22;56083;48.774;8.942;2022-08-25T04:41:00;14.10;99.90
69031;DHT22;56083;48.774;8.942;2022-08-25T04:43:26;14.00;99.90
69031;DHT22;56083;48.774;8.942;2022-08-25T04:45:52;14.00;99.90
69031;DHT22;56083;48.774;8.942;2022-08-25T04:48:18;14.00;99.90
69031;DHT22;56083;48.774;8.942;2022-08-25T04:50:44;14.00;99.90
69031;DHT22;56083;48.774;8.942;2022-08-25T04:53:10;14.10;99.90
69031;DHT22;56083;48.774;8.942;2022-08-25T04:55:44;14.10;99.90
69031;DHT22;56083;48.774;8.942;2022-08-25T04:58:11;14.10;99.90
69031;DHT22;56083;48.774;8.942;2022-08-25T05:00:38;14.10;99.90
69031;DHT22;56083;48.774;8.942;2022-08-25T05:03:04;14.20;99.90
69031;DHT22;56083;48.774;8.942;2022-08-25T05:05:31;14.10;99.90
69031;DHT22;56083;48.774;8.942;2022-08-25T05:07:57;14.30;99.90
69031;DHT22;56083;48.774;8.942;2022-08-25T05:10:24;14.40;99.90
69031;DHT22;56083;48.774;8.942;2022-08-25T05:12:50;14.40;99.90
69031;DHT22;56083;48.774;8.942;2022-08-25T05:15:16;14.50;99.90
69031;DHT22;56083;48.774;8.942;2022-08-25T05:18:00;14.60;99.90
69031;DHT22;56083;48.774;8.942;2022-08-25T05:20:26;14.80;99.90
69031;DHT22;56083;48.774;8.942;2022-08-25T05:22:52;14.80;99.90
69031;DHT22;56083;48.774;8.942;2022-08-25T05:25:17;14.90;99.90
69031;DHT22;56083;48.774;8.942;2022-08-25T05:27:43;15.00;99.90
69031;DHT22;56083;48.774;8.942;2022-08-25T05:30:11;15.10;99.90
69031;DHT22;56083;48.774;8.942;2022-08-25T05:32:37;15.10;99.90
69031;DHT22;56083;48.774;8.942;2022-08-25T05:35:04;15.30;99.90
69031;DHT22;56083;48.774;8.942;2022-08-25T05:37:30;15.30;99.90
69031;DHT22;56083;48.774;8.942;2022-08-25T05:39:55;15.50;99.90
69031;DHT22;56083;48.774;8.942;2022-08-25T05:42:21;15.60;99.90
69031;DHT22;56083;48.774;8.942;2022-08-25T05:44:47;15.70;99.90
69031;DHT22;56083;48.774;8.942;2022-08-25T05:47:12;15.80;99.90
69031;DHT22;56083;48.774;8.942;2022-08-25T05:49:38;15.90;99.90
69031;DHT22;56083;48.774;8.942;2022-08-25T05:52:04;16.10;99.90
69031;DHT22;56083;48.774;8.942;2022-08-25T05:54:30;16.20;99.90
69031;DHT22;56083;48.774;8.942;2022-08-25T05:56:57;16.40;99.90
69031;DHT22;56083;48.774;8.942;2022-08-25T05:59:23;16.50;99.90
69031;DHT22;56083;48.774;8.942;2022-08-25T06:01:48;16.80;99.90
69031;DHT22;56083;48.774;8.942;2022-08-25T06:04:32;17.00;99.90
69031;DHT22;56083;48.774;8.942;2022-08-25T06:06:58;17.10;99.90
69031;DHT22;56083;48.774;8.942;2022-08-25T06:09:24;17.30;99.90
69031;DHT22;56083;48.774;8.942;2022-08-25T06:11:51;17.50;99.90
69031;DHT22;56083;48.774;8.942;2022-08-25T06:14:17;17.80;99.90
69031;DHT22;56083;48.774;8.942;2022-08-25T06:16:43;18.10;99.90
69031;DHT22;56083;48.774;8.942;2022-08-25T06:19:09;18.30;99.90
69031;DHT22;56083;48.774;8.942;2022-08-25T06:21:36;18.60;99.90
69031;DHT22;56083;48.774;8.942;2022-08-25T06:24:06;18.80;99.90
69031;DHT22;56083;48.774;8.942;2022-08-25T06:26:32;19.10;99.90
69031;DHT22;56083;48.774;8.942;2022-08-25T06:28:58;19.40;99.90
69031;DHT22;56083;48.774;8.942;2022-08-25T06:31:23;19.60;99.90
69031;DHT22;56083;48.774;8.942;2022-08-25T06:33:49;19.90;99.90
69031;DHT22;56083;48.774;8.942;2022-08-25T06:36:15;20.30;99.90
69031;DHT22;56083;48.774;8.942;2022-08-25T06:38:41;20.50;99.90
69031;DHT22;56083;48.774;8.942;2022-08-25T06:41:08;21.00;99.90
69031;DHT22;56083;48.774;8.942;2022-08-25T06:43:40;21.50;99.90
69031;DHT22;56083;48.774;8.942;2022-08-25T06:46:09;22.30;99.90
69031;DHT22;56083;48.774;8.942;2022-08-25T06:48:35;22.80;99.90
69031;DHT22;56083;48.774;8.942;2022-08-25T06:51:09;23.50;99.90
69031;DHT22;56083;48.774;8.942;2022-08-25T06:53:35;24.30;99.90
69031;DHT22;56083;48.774;8.942;2022-08-25T06:56:01;25.10;99.90
69031;DHT22;56083;48.774;8.942;2022-08-25T06:58:27;25.70;99.90
69031;DHT22;56083;48.774;8.942;2022-08-25T07:00:53;26.20;99.90
69031;DHT22;56083;48.774;8.942;2022-08-25T07:03:19;27.00;99.90
69031;DHT22;56083;48.774;8.942;2022-08-25T07:05:52;27.40;99.90
69031;DHT22;56083;48.774;8.942;2022-08-25T07:08:19;28.00;99.90
69031;DHT22;56083;48.774;8.942;2022-08-25T07:10:45;28.50;99.90
69031;DHT22;56083;48.774;8.942;2022-08-25T07:13:11;29.00;99.90
69031;DHT22;56083;48.774;8.942;2022-08-25T07:15:38;29.30;99.90
69031;DHT22;56083;48.774;8.942;2022-08-25T07:18:05;29.80;99.90
69031;DHT22;56083;48.774;8.942;2022-08-25T07:20:32;29.70;99.90
69031;DHT22;56083;48.774;8.942;2022-08-25T07:22:58;29.60;99.90
69031;DHT22;56083;48.774;8.942;2022-08-25T07:25:23;30.50;99.90
69031;DHT22;56083;48.774;8.942;2022-08-25T07:27:49;30.50;99.90
69031;DHT22;56083;48.774;8.942;2022-08-25T07:30:16;30.10;99.90
69031;DHT22;56083;48.774;8.942;2022-08-25T07:32:42;30.50;99.90
69031;DHT22;56083;48.774;8.942;2022-08-25T07:35:08;30.70;99.90
69031;DHT22;56083;48.774;8.942;2022-08-25T07:37:45;30.50;99.90
69031;DHT22;56083;48.774;8.942;2022-08-25T07:40:17;30.80;99.90
69031;DHT22;56083;48.774;8.942;2022-08-25T07:42:44;31.40;99.90
69031;DHT22;56083;48.774;8.942;2022-08-25T07:45:10;32.30;99.30
69031;DHT22;56083;48.774;8.942;2022-08-25T07:47:37;32.80;96.50
69031;DHT22;56083;48.774;8.942;2022-08-25T07:50:04;32.80;94.50
69031;DHT22;56083;48.774;8.942;2022-08-25T07:52:30;33.20;94.90
69031;DHT22;56083;48.774;8.942;2022-08-25T07:54:56;33.60;93.30
69031;DHT22;56083;48.774;8.942;2022-08-25T07:57:22;34.00;91.70
69031;DHT22;56083;48.774;8.942;2022-08-25T07:59:51;34.10;90.80
69031;DHT22;56083;48.774;8.942;2022-08-25T08:02:17;33.90;89.70
69031;DHT22;56083;48.774;8.942;2022-08-25T08:04:43;34.10;87.90
69031;DHT22;56083;48.774;8.942;2022-08-25T08:07:09;33.20;87.00
69031;DHT22;56083;48.774;8.942;2022-08-25T08:09:36;32.60;88.00
69031;DHT22;56083;48.774;8.942;2022-08-25T08:12:02;31.80;90.70
69031;DHT22;56083;48.774;8.942;2022-08-25T08:14:28;31.10;90.50
69031;DHT22;56083;48.774;8.942;2022-08-25T08:16:54;30.20;91.10
69031;DHT22;56083;48.774;8.942;2022-08-25T08:19:20;29.70;92.90
69031;DHT22;56083;48.774;8.942;2022-08-25T08:21:47;29.90;93.00
69031;DHT22;56083;48.774;8.942;2022-08-25T08:24:14;30.20;92.90
69031;DHT22;56083;48.774;8.942;2022-08-25T08:26:39;30.50;93.10
69031;DHT22;56083;48.774;8.942;2022-08-25T08:29:05;31.70;91.90
69031;DHT22;56083;48.774;8.942;2022-08-25T08:31:31;32.50;89.70
69031;DHT22;56083;48.774;8.942;2022-08-25T08:33:57;32.20;88.00
69031;DHT22;56083;48.774;8.942;2022-08-25T08:36:24;31.10;89.90
69031;DHT22;56083;48.774;8.942;2022-08-25T08:38:50;30.80;89.60
69031;DHT22;56083;48.774;8.942;2022-08-25T08:41:21;31.00;88.90
69031;DHT22;56083;48.774;8.942;2022-08-25T08:49:39;32.10;86.10
69031;DHT22;56083;48.774;8.942;2022-08-25T08:52:14;31.40;87.80
69031;DHT22;56083;48.774;8.942;2022-08-25T08:54:41;31.80;86.70
69031;DHT22;56083;48.774;8.942;2022-08-25T08:57:15;31.90;85.90
69031;DHT22;56083;48.774;8.942;2022-08-25T08:59:55;32.10;84.90
69031;DHT22;56083;48.774;8.942;2022-08-25T09:02:27;30.80;87.30
69031;DHT22;56083;48.774;8.942;2022-08-25T09:05:03;31.10;88.40
69031;DHT22;56083;48.774;8.942;2022-08-25T09:07:39;31.50;86.20
69031;DHT22;56083;48.774;8.942;2022-08-25T09:10:06;31.70;86.50
69031;DHT22;56083;48.774;8.942;2022-08-25T09:12:52;31.50;86.40
69031;DHT22;56083;48.774;8.942;2022-08-25T09:15:31;31.80;85.40
69031;DHT22;56083;48.774;8.942;2022-08-25T09:21:02;33.20;80.80
69031;DHT22;56083;48.774;8.942;2022-08-25T09:23:33;32.80;81.00
69031;DHT22;56083;48.774;8.942;2022-08-25T09:28:44;33.80;78.30
69031;DHT22;56083;48.774;8.942;2022-08-25T09:31:25;34.40;75.40
69031;DHT22;56083;48.774;8.942;2022-08-25T09:33:57;34.00;74.20
69031;DHT22;56083;48.774;8.942;2022-08-25T09:36:24;33.40;75.30
69031;DHT22;56083;48.774;8.942;2022-08-25T09:38:50;32.90;77.30
69031;DHT22;56083;48.774;8.942;2022-08-25T09:41:17;33.50;76.20
69031;DHT22;56083;48.774;8.942;2022-08-25T09:43:58;34.20;75.30
69031;DHT22;56083;48.774;8.942;2022-08-25T09:46:28;35.00;71.80
69031;DHT22;56083;48.774;8.942;2022-08-25T09:48:55;35.30;70.10
69031;DHT22;56083;48.774;8.942;2022-08-25T09:51:32;34.30;70.80
69031;DHT22;56083;48.774;8.942;2022-08-25T09:54:03;34.60;72.00
69031;DHT22;56083;48.774;8.942;2022-08-25T09:56:31;36.00;68.60
69031;DHT22;56083;48.774;8.942;2022-08-25T09:59:17;35.60;66.80
69031;DHT22;56083;48.774;8.942;2022-08-25T10:01:49;35.10;67.60
69031;DHT22;56083;48.774;8.942;2022-08-25T10:07:27;34.70;68.90
69031;DHT22;56083;48.774;8.942;2022-08-25T10:09:59;36.30;66.20
69031;DHT22;56083;48.774;8.942;2022-08-25T10:12:40;37.60;62.50
69031;DHT22;56083;48.774;8.942;2022-08-25T10:15:31;37.80;59.70
69031;DHT22;56083;48.774;8.942;2022-08-25T10:18:22;37.10;60.30
69031;DHT22;56083;48.774;8.942;2022-08-25T10:21:12;37.60;59.30
69031;DHT22;56083;48.774;8.942;2022-08-25T10:23:47;36.40;59.80
69031;DHT22;56083;48.774;8.942;2022-08-25T10:26:22;36.00;63.00
69031;DHT22;56083;48.774;8.942;2022-08-25T10:31:28;34.80;62.50
69031;DHT22;56083;48.774;8.942;2022-08-25T10:34:16;34.70;62.90
69031;DHT22;56083;48.774;8.942;2022-08-25T10:39:36;33.40;64.70
69031;DHT22;56083;48.774;8.942;2022-08-25T10:45:12;34.20;60.30
69031;DHT22;56083;48.774;8.942;2022-08-25T10:48:20;34.90;61.00
69031;DHT22;56083;48.774;8.942;2022-08-25T10:56:28;37.50;55.40
69031;DHT22;56083;48.774;8.942;2022-08-25T11:04:45;35.20;57.90
69031;DHT22;56083;48.774;8.942;2022-08-25T11:07:24;34.10;60.10
69031;DHT22;56083;48.774;8.942;2022-08-25T11:09:53;35.00;59.80
69031;DHT22;56083;48.774;8.942;2022-08-25T11:12:41;36.60;58.40
69031;DHT22;56083;48.774;8.942;2022-08-25T11:15:16;37.60;57.50
69031;DHT22;56083;48.774;8.942;2022-08-25T11:21:25;38.10;53.90
69031;DHT22;56083;48.774;8.942;2022-08-25T11:23:49;37.30;55.00
69031;DHT22;56083;48.774;8.942;2022-08-25T11:26:25;38.10;54.90
69031;DHT22;56083;48.774;8.942;2022-08-25T11:29:13;39.70;51.80
69031;DHT22;56083;48.774;8.942;2022-08-25T11:31:51;40.40;49.60
69031;DHT22;56083;48.774;8.942;2022-08-25T11:34:18;37.90;51.00
69031;DHT22;56083;48.774;8.942;2022-08-25T11:36:56;37.10;52.30
69031;DHT22;56083;48.774;8.942;2022-08-25T11:49:02;37.90;51.00
69031;DHT22;56083;48.774;8.942;2022-08-25T11:51:45;38.30;50.40
69031;DHT22;56083;48.774;8.942;2022-08-25T11:56:58;41.30;46.50
69031;DHT22;56083;48.774;8.942;2022-08-25T12:02:38;40.60;46.00
69031;DHT22;56083;48.774;8.942;2022-08-25T12:08:04;42.80;43.00
69031;DHT22;56083;48.774;8.942;2022-08-25T12:11:01;43.30;42.30
69031;DHT22;56083;48.774;8.942;2022-08-25T12:13:50;43.80;41.10
69031;DHT22;56083;48.774;8.942;2022-08-25T12:24:59;43.00;40.60
69031;DHT22;56083;48.774;8.942;2022-08-25T12:27:57;42.90;39.90
69031;DHT22;56083;48.774;8.942;2022-08-25T12:30:48;43.50;39.30
69031;DHT22;56083;48.774;8.942;2022-08-25T12:36:29;43.90;38.70
69031;DHT22;56083;48.774;8.942;2022-08-25T12:39:19;44.60;37.40
69031;DHT22;56083;48.774;8.942;2022-08-25T12:41:54;44.40;37.50
69031;DHT22;56083;48.774;8.942;2022-08-25T12:44:45;44.20;37.10
69031;DHT22;56083;48.774;8.942;2022-08-25T12:47:26;41.70;37.40
69031;DHT22;56083;48.774;8.942;2022-08-25T12:50:37;39.70;41.10
69031;DHT22;56083;48.774;8.942;2022-08-25T12:56:27;40.20;39.80
69031;DHT22;56083;48.774;8.942;2022-08-25T13:01:32;42.40;39.00
69031;DHT22;56083;48.774;8.942;2022-08-25T13:13:03;46.60;36.90
69031;DHT22;56083;48.774;8.942;2022-08-25T13:15:41;47.00;35.90
69031;DHT22;56083;48.774;8.942;2022-08-25T13:18:24;47.10;34.80
69031;DHT22;56083;48.774;8.942;2022-08-25T13:21:00;47.80;33.40
69031;DHT22;56083;48.774;8.942;2022-08-25T13:23:27;48.20;32.80
69031;DHT22;56083;48.774;8.942;2022-08-25T13:25:56;47.70;33.50
69031;DHT22;56083;48.774;8.942;2022-08-25T13:28:29;45.20;33.90
69031;DHT22;56083;48.774;8.942;2022-08-25T13:31:01;41.50;37.30
69031;DHT22;56083;48.774;8.942;2022-08-25T13:33:33;39.60;39.50
69031;DHT22;56083;48.774;8.942;2022-08-25T13:36:00;39.90;40.50
69031;DHT22;56083;48.774;8.942;2022-08-25T13:38:49;41.20;39.00
69031;DHT22;56083;48.774;8.942;2022-08-25T13:41:20;41.60;38.20
69031;DHT22;56083;48.774;8.942;2022-08-25T13:43:48;41.90;37.70
69031;DHT22;56083;48.774;8.942;2022-08-25T13:46:21;42.00;37.60
69031;DHT22;56083;48.774;8.942;2022-08-25T13:48:47;43.10;37.30
69031;DHT22;56083;48.774;8.942;2022-08-25T13:53:51;44.70;34.60
69031;DHT22;56083;48.774;8.942;2022-08-25T13:58:59;42.30;37.10
69031;DHT22;56083;48.774;8.942;2022-08-25T14:01:31;42.80;36.30
69031;DHT22;56083;48.774;8.942;2022-08-25T14:07:05;41.80;38.30
69031;DHT22;56083;48.774;8.942;2022-08-25T14:09:53;42.40;37.40
69031;DHT22;56083;48.774;8.942;2022-08-25T14:13:05;42.90;37.90
69031;DHT22;56083;48.774;8.942;2022-08-25T14:15:33;42.60;36.00
69031;DHT22;56083;48.774;8.942;2022-08-25T14:18:01;42.70;36.30
69031;DHT22;56083;48.774;8.942;2022-08-25T14:20:29;42.80;37.20
69031;DHT22;56083;48.774;8.942;2022-08-25T14:23:22;44.10;36.10
69031;DHT22;56083;48.774;8.942;2022-08-25T14:25:55;44.10;35.70
69031;DHT22;56083;48.774;8.942;2022-08-25T14:28:24;44.40;35.00
69031;DHT22;56083;48.774;8.942;2022-08-25T14:31:18;43.90;35.20
69031;DHT22;56083;48.774;8.942;2022-08-25T14:33:57;43.70;35.70
69031;DHT22;56083;48.774;8.942;2022-08-25T14:36:26;41.80;37.00
69031;DHT22;56083;48.774;8.942;2022-08-25T14:38:53;41.90;37.70
69031;DHT22;56083;48.774;8.942;2022-08-25T14:41:19;41.70;37.90
69031;DHT22;56083;48.774;8.942;2022-08-25T14:43:46;41.70;37.90
69031;DHT22;56083;48.774;8.942;2022-08-25T14:46:23;42.20;37.70
69031;DHT22;56083;48.774;8.942;2022-08-25T14:48:52;42.30;37.20
69031;DHT22;56083;48.774;8.942;2022-08-25T14:51:20;41.90;36.90
69031;DHT22;56083;48.774;8.942;2022-08-25T14:53:48;41.70;37.40
69031;DHT22;56083;48.774;8.942;2022-08-25T14:56:14;42.70;37.00
69031;DHT22;56083;48.774;8.942;2022-08-25T14:58:40;43.10;36.50
69031;DHT22;56083;48.774;8.942;2022-08-25T15:01:13;42.50;36.70
69031;DHT22;56083;48.774;8.942;2022-08-25T15:03:44;42.40;36.90
69031;DHT22;56083;48.774;8.942;2022-08-25T15:06:13;42.30;36.60
69031;DHT22;56083;48.774;8.942;2022-08-25T15:08:40;42.90;36.20
69031;DHT22;56083;48.774;8.942;2022-08-25T15:11:25;42.10;36.30
69031;DHT22;56083;48.774;8.942;2022-08-25T15:13:51;42.50;35.80
69031;DHT22;56083;48.774;8.942;2022-08-25T15:16:27;42.80;35.10
69031;DHT22;56083;48.774;8.942;2022-08-25T15:18:54;40.60;36.70
69031;DHT22;56083;48.774;8.942;2022-08-25T15:21:21;40.70;37.30
69031;DHT22;56083;48.774;8.942;2022-08-25T15:23:47;40.60;37.70
69031;DHT22;56083;48.774;8.942;2022-08-25T15:26:13;38.40;40.00
69031;DHT22;56083;48.774;8.942;2022-08-25T15:28:43;38.00;41.40
69031;DHT22;56083;48.774;8.942;2022-08-25T15:31:10;38.40;40.60
69031;DHT22;56083;48.774;8.942;2022-08-25T15:33:40;39.30;39.80
69031;DHT22;56083;48.774;8.942;2022-08-25T15:36:13;39.70;38.70
69031;DHT22;56083;48.774;8.942;2022-08-25T15:38:41;40.20;39.30
69031;DHT22;56083;48.774;8.942;2022-08-25T15:41:08;40.60;38.60
69031;DHT22;56083;48.774;8.942;2022-08-25T15:43:35;40.30;39.00
69031;DHT22;56083;48.774;8.942;2022-08-25T15:46:03;40.50;38.50
69031;DHT22;56083;48.774;8.942;2022-08-25T15:48:30;40.60;39.30
69031;DHT22;56083;48.774;8.942;2022-08-25T15:50:57;40.70;38.70
69031;DHT22;56083;48.774;8.942;2022-08-25T15:53:26;41.20;38.00
69031;DHT22;56083;48.774;8.942;2022-08-25T15:55:53;41.50;37.10
69031;DHT22;56083;48.774;8.942;2022-08-25T15:58:19;41.50;37.20
69031;DHT22;56083;48.774;8.942;2022-08-25T16:00:46;41.90;37.00
69031;DHT22;56083;48.774;8.942;2022-08-25T16:03:12;41.30;37.10
69031;DHT22;56083;48.774;8.942;2022-08-25T16:05:40;41.10;37.50
69031;DHT22;56083;48.774;8.942;2022-08-25T16:08:06;41.00;37.40
69031;DHT22;56083;48.774;8.942;2022-08-25T16:10:38;41.20;36.90
69031;DHT22;56083;48.774;8.942;2022-08-25T16:13:10;40.90;37.70
69031;DHT22;56083;48.774;8.942;2022-08-25T16:15:36;40.30;38.30
69031;DHT22;56083;48.774;8.942;2022-08-25T16:18:03;40.00;38.50
69031;DHT22;56083;48.774;8.942;2022-08-25T16:20:46;37.90;40.30
69031;DHT22;56083;48.774;8.942;2022-08-25T16:23:13;38.00;41.60
69031;DHT22;56083;48.774;8.942;2022-08-25T16:25:41;37.80;41.80
69031;DHT22;56083;48.774;8.942;2022-08-25T16:28:09;38.20;41.60
69031;DHT22;56083;48.774;8.942;2022-08-25T16:30:35;37.50;41.60
69031;DHT22;56083;48.774;8.942;2022-08-25T16:33:01;37.40;41.90
69031;DHT22;56083;48.774;8.942;2022-08-25T16:35:27;36.90;42.30
69031;DHT22;56083;48.774;8.942;2022-08-25T16:37:53;36.20;43.90
69031;DHT22;56083;48.774;8.942;2022-08-25T16:40:19;36.30;44.10
69031;DHT22;56083;48.774;8.942;2022-08-25T16:42:47;36.00;44.40
69031;DHT22;56083;48.774;8.942;2022-08-25T16:45:13;35.30;45.80
69031;DHT22;56083;48.774;8.942;2022-08-25T16:47:39;34.80;46.40
69031;DHT22;56083;48.774;8.942;2022-08-25T16:50:06;34.60;47.50
69031;DHT22;56083;48.774;8.942;2022-08-25T16:52:35;34.50;47.40
69031;DHT22;56083;48.774;8.942;2022-08-25T16:55:20;34.30;47.90
69031;DHT22;56083;48.774;8.942;2022-08-25T16:57:48;34.60;48.00
69031;DHT22;56083;48.774;8.942;2022-08-25T17:00:19;34.20;49.40
69031;DHT22;56083;48.774;8.942;2022-08-25T17:02:46;33.90;49.20
69031;DHT22;56083;48.774;8.942;2022-08-25T17:05:13;32.90;51.00
69031;DHT22;56083;48.774;8.942;2022-08-25T17:07:39;32.80;51.50
69031;DHT22;56083;48.774;8.942;2022-08-25T17:10:06;32.20;52.30
69031;DHT22;56083;48.774;8.942;2022-08-25T17:12:32;31.30;53.80
69031;DHT22;56083;48.774;8.942;2022-08-25T17:14:57;30.80;55.40
69031;DHT22;56083;48.774;8.942;2022-08-25T17:17:23;30.10;56.50
69031;DHT22;56083;48.774;8.942;2022-08-25T17:19:49;29.60;57.70
69031;DHT22;56083;48.774;8.942;2022-08-25T17:22:14;29.20;58.60